Glade, KS (67639)

6:12 PM CDT on July 23, 2016 (GMT -0500)
Hwy 9 & W. 800 Rd. | | Change Station
Active Advisory: Excessive Heat Warning

Elev 1893 ft 39.67 °N, 99.47 °W | Updated 18 seconds ago

Clear
Clear
104.9 °F
Feels Like 106 °F
N
8.1
Wind Variable Wind from NNW
Gusts 9.8 mph

Today
High -- | Low -- °F
--% Chance of Precip.
Yesterday
High -- | Low -- °F
Precip. -- in
Pressure 29.71 in
Visibility 10.0 miles
Clouds Clear
Heat Index 106 °F
Dew Point 60 °F
Humidity 23%
Rainfall 0.00 in
Snow Depth Not available.
6:28 AM 8:57 PM
Waning Gibbous, 82% visible
METAR KHLC 232253Z AUTO 34011KT 10SM CLR 38/18 A2980 RMK AO2 SLP059 T03830178 TSNO
Pressure 29.71 in
Visibility 10.0 miles
Clouds Clear
Heat Index 106 °F
Dew Point 60 °F
Humidity 23%
Rainfall 0.00 in
Snow Depth Not available.
6:28 AM 8:57 PM
Waning Gibbous, 82% visible
METAR KHLC 232253Z AUTO 34011KT 10SM CLR 38/18 A2980 RMK AO2 SLP059 T03830178 TSNO

10-Day Weather Forecast

Almanac

Astronomy

Jul. 23, 2016 Rise Set
Actual Time
Civil Twilight
Nautical Twilight
Astronomical Twilight
Moon
Length of Visible Light
Length of Day
Tomorrow will be .
, % of the Moon is Illuminated

Today's Extremes

State Highs State Lows

Community

WunderPhotos

Upload Photos

1,926,970 photos uploaded!

WunderBlog® & News

Nearby

Air Quality

  Air Quality AQ Index Pollutant
Not available.

Snow Depth

Station Depth Elevation

Earthquake Activity

City Distance Mag. Time & Date
Minimum magnitude displayed is 2.5.

Coastal Water Temperatures

Place Temperature

Stations

Nearby Weather Stations

Station Location Temp. Windchill Dew Point Humidity Wind Precip. Elev Updated Type
                   

Watches & Warnings

Excessive Heat Warning
Issued: 11:28 AM CDT Jul. 23, 2016 – National Weather Service

... Excessive heat warning remains in effect until 7 PM CDT this
evening...

* heat index... although variable cloud cover may help to hold
values down a bit in some places... the majority of the warning
area is expected to see peak heat index values between 100 and
106 degrees this afternoon into early this evening.

* Impacts... the cumulative effects of the recent prolonged stretch
of heat and humidity could result in a potentially dangerous
situation which could promote heat-related illnesses.

Precautionary/preparedness actions...

An excessive heat warning means that a prolonged period of
dangerously hot temperatures will occur. The combination of hot
temperatures and high humidity will combine to create a dangerous
situation in which heat illnesses are likely. Drink plenty of
fluids... stay in an air-conditioned room... stay out of the sun...
and check up on relatives and neighbors.



Pfannkuch